createdAt,value
2022-09-01T00:01:08.873Z,100335.22
2022-09-01T00:03:49.473Z,100342.03
2022-09-01T00:06:33.295Z,100336.44
2022-09-01T00:09:26.407Z,100331.19
2022-09-01T00:12:15.551Z,100328.84
2022-09-01T00:14:55.430Z,100330.84
2022-09-01T00:17:42.458Z,100334.44
2022-09-01T00:20:22.590Z,100330.44
2022-09-01T00:23:09.429Z,100332.06
2022-09-01T00:25:49.515Z,100332.47
2022-09-01T00:28:36.409Z,100329.25
2022-09-01T00:31:16.603Z,100329.25
2022-09-01T00:34:03.502Z,100332.47
2022-09-01T00:36:50.409Z,100333.25
2022-09-01T00:39:37.402Z,100327.25
2022-09-01T00:42:17.481Z,100322.03
2022-09-01T00:45:04.414Z,100325.66
2022-09-01T00:47:44.547Z,100336.50
2022-09-01T00:50:32.390Z,100337.69
2022-09-01T00:53:13.641Z,100347.31
2022-09-01T00:56:01.421Z,100345.28
2022-09-01T00:58:44.560Z,100342.88
2022-09-01T01:01:31.444Z,100337.69
2022-09-01T01:04:17.728Z,100343.69
2022-09-01T01:07:09.385Z,100338.84
2022-09-01T01:09:51.764Z,100338.88
2022-09-01T01:12:39.396Z,100333.66
2022-09-01T01:15:21.490Z,100335.25
2022-09-01T01:18:08.461Z,100333.25
2022-09-01T01:21:14.359Z,100334.84
2022-09-01T01:24:29.001Z,100329.22
2022-09-01T01:27:15.360Z,100326.41
2022-09-01T01:29:57.632Z,100328.81
2022-09-01T01:32:52.436Z,100331.22
2022-09-01T01:35:40.375Z,100326.00
2022-09-01T01:38:29.431Z,100331.19
2022-09-01T01:41:11.912Z,100324.00
2022-09-01T01:43:59.366Z,100326.00
2022-09-01T01:46:53.223Z,100320.38
2022-09-01T01:49:42.329Z,100328.00
2022-09-01T01:52:30.273Z,100332.00
2022-09-01T01:55:16.338Z,100332.81
2022-09-01T01:57:58.377Z,100322.00
2022-09-01T02:00:46.367Z,100341.59
2022-09-01T02:03:39.346Z,100341.22
2022-09-01T02:06:31.326Z,100341.22
2022-09-01T02:09:19.514Z,100340.41
2022-09-01T02:12:03.366Z,100334.78
2022-09-01T02:14:50.307Z,100331.19
2022-09-01T02:17:30.473Z,100327.56
2022-09-01T02:20:17.307Z,100327.56
2022-09-01T02:22:57.447Z,100324.75
2022-09-01T02:26:14.465Z,100326.66
2022-09-01T02:28:59.298Z,100314.25
2022-09-01T02:31:43.105Z,100311.03
2022-09-01T02:34:30.282Z,100310.66
2022-09-01T02:37:17.276Z,100313.06
2022-09-01T02:40:00.413Z,100319.44
2022-09-01T02:42:48.349Z,100316.25
2022-09-01T02:45:36.331Z,100312.66
2022-09-01T02:48:18.633Z,100321.44
2022-09-01T02:51:06.278Z,100321.03
2022-09-01T02:53:52.297Z,100328.28
2022-09-01T02:56:39.285Z,100320.25
2022-09-01T02:59:21.925Z,100327.06
2022-09-01T03:02:15.248Z,100324.28
2022-09-01T03:04:57.591Z,100319.84
2022-09-01T03:26:03.975Z,100325.22
2022-09-01T03:28:52.030Z,100325.25
2022-09-01T03:31:33.120Z,100332.13
2022-09-01T03:34:19.986Z,100336.09
2022-09-01T03:37:08.063Z,100336.97
2022-09-01T03:39:54.933Z,100332.19
2022-09-01T03:42:46.985Z,100336.56
2022-09-01T03:45:36.004Z,100322.94
2022-09-01T03:48:23.967Z,100324.47
2022-09-01T03:51:04.771Z,100318.50
2022-09-01T03:53:52.936Z,100312.16
2022-09-01T03:56:34.337Z,100317.78
2022-09-01T03:59:25.938Z,100313.34
2022-09-01T04:02:06.423Z,100322.56
2022-09-01T04:04:53.938Z,100333.44
2022-09-01T04:07:34.321Z,100321.06
2022-09-01T04:10:20.925Z,100333.44
2022-09-01T04:13:09.933Z,100338.34
2022-09-01T04:15:53.064Z,100346.00
2022-09-01T04:18:39.989Z,100339.22
2022-09-01T04:21:27.008Z,100343.22
2022-09-01T04:24:22.066Z,100340.88
2022-09-01T04:27:10.587Z,100341.69
2022-09-01T04:29:57.039Z,100338.50
2022-09-01T04:32:47.919Z,100337.28
2022-09-01T04:35:38.903Z,100341.69
2022-09-01T04:38:19.421Z,100334.81
2022-09-01T04:41:05.910Z,100334.47
2022-09-01T04:43:55.874Z,100332.06
2022-09-01T04:46:45.938Z,100338.09
2022-09-01T04:49:27.122Z,100333.28
2022-09-01T04:52:13.878Z,100333.22
2022-09-01T04:55:00.863Z,100327.94
2022-09-01T04:57:42.367Z,100330.63
2022-09-01T05:00:28.881Z,100335.75
2022-09-01T05:03:10.973Z,100336.19
2022-09-01T05:06:25.839Z,100340.19
2022-09-01T05:09:12.892Z,100338.06
2022-09-01T05:12:29.834Z,100340.09
2022-09-01T05:15:16.834Z,100333.56
2022-09-01T05:18:00.067Z,100336.63
2022-09-01T05:20:48.844Z,100337.63
2022-09-01T05:23:30.941Z,100340.28
2022-09-01T05:26:21.178Z,100329.47
2022-09-01T05:29:04.260Z,100325.91
2022-09-01T05:31:50.910Z,100336.38
2022-09-01T05:34:36.446Z,100327.06
2022-09-01T05:37:23.798Z,100326.66
2022-09-01T05:40:16.587Z,100326.03
2022-09-01T05:42:58.802Z,100329.81
2022-09-01T05:45:56.483Z,100329.56
2022-09-01T05:48:46.775Z,100328.34
2022-09-01T05:51:45.521Z,100329.78
2022-09-01T05:54:29.252Z,100341.28
2022-09-01T05:57:33.884Z,100332.59
2022-09-01T06:00:24.803Z,100341.09
2022-09-01T06:03:16.028Z,100335.13
2022-09-01T06:06:08.810Z,100339.88
2022-09-01T06:08:56.793Z,100339.31
2022-09-01T06:11:37.328Z,100340.63
2022-09-01T06:14:23.778Z,100349.97
2022-09-01T06:17:04.325Z,100332.22
2022-09-01T06:19:51.804Z,100340.25
2022-09-01T06:22:41.283Z,100351.22
2022-09-01T06:25:27.801Z,100352.16
2022-09-01T06:28:08.640Z,100358.03
2022-09-01T06:30:56.957Z,100350.84
2022-09-01T06:33:39.002Z,100360.03
2022-09-01T06:36:34.842Z,100352.09
2022-09-01T06:39:20.087Z,100356.59
2022-09-01T06:42:08.853Z,100356.03
2022-09-01T06:45:04.763Z,100369.41
2022-09-01T06:47:59.347Z,100363.69
2022-09-01T06:53:51.744Z,100359.81
2022-09-01T06:56:42.757Z,100364.13
2022-09-01T06:59:38.721Z,100369.56
2022-09-01T07:06:00.835Z,100371.28
2022-09-01T07:09:20.028Z,100364.38
2022-09-01T07:12:37.714Z,100360.72
2022-09-01T07:18:27.806Z,100357.38
2022-09-01T07:21:36.195Z,100369.75
2022-09-01T07:24:17.691Z,100362.38
2022-09-01T07:27:25.594Z,100368.91
2022-09-01T07:30:28.797Z,100371.72
2022-09-01T07:36:26.826Z,100381.84
2022-09-01T07:46:36.505Z,100382.34
2022-09-01T07:52:10.837Z,100377.03
2022-09-01T07:54:58.716Z,100381.88
2022-09-01T07:57:38.926Z,100375.19
2022-09-01T08:00:30.223Z,100374.88
2022-09-01T08:03:21.007Z,100375.44
2022-09-01T08:06:07.048Z,100375.38
2022-09-01T08:08:56.990Z,100375.38
2022-09-01T08:12:02.690Z,100372.94
2022-09-01T08:15:41.142Z,100379.84
2022-09-01T08:18:00.933Z,100372.78
2022-09-01T08:20:51.678Z,100370.16
2022-09-01T08:23:49.671Z,100371.47
2022-09-01T08:26:43.654Z,100373.50
2022-09-01T08:29:24.108Z,100371.72
2022-09-01T08:32:10.661Z,100361.56
2022-09-01T08:34:51.087Z,100372.72
2022-09-01T08:37:37.651Z,100352.03
2022-09-01T08:40:23.733Z,100354.25
2022-09-01T08:43:31.636Z,100351.56
2022-09-01T08:46:35.455Z,100349.41
2022-09-01T08:49:42.806Z,100342.56
2022-09-01T08:52:32.617Z,100345.84
2022-09-01T08:55:32.210Z,100340.19
2022-09-01T08:58:19.788Z,100324.53
2022-09-01T09:01:42.756Z,100348.69
2022-09-01T09:04:37.727Z,100336.84
2022-09-01T09:07:39.611Z,100326.41
2022-09-01T09:10:50.644Z,100330.78
2022-09-01T09:13:38.430Z,100334.50
2022-09-01T09:16:40.615Z,100333.22
2022-09-01T09:19:29.338Z,100331.44
2022-09-01T09:22:27.607Z,100334.53
2022-09-01T09:25:19.379Z,100322.72
2022-09-01T09:28:00.996Z,100331.16
2022-09-01T09:30:41.088Z,100328.31
2022-09-01T09:33:53.657Z,100326.59
2022-09-01T09:36:36.956Z,100325.28
2022-09-01T09:39:30.591Z,100323.81
2022-09-01T09:42:14.213Z,100318.16
2022-09-01T09:44:59.579Z,100318.59
2022-09-01T09:47:49.588Z,100320.88
2022-09-01T09:50:46.767Z,100314.16
2022-09-01T09:53:43.706Z,100317.53
2022-09-01T09:56:25.779Z,100322.63
2022-09-01T09:59:12.614Z,100332.13
2022-09-01T10:02:07.077Z,100305.88
2022-09-01T10:04:47.592Z,100306.41
2022-09-01T10:07:44.598Z,100310.00
2022-09-01T10:10:45.820Z,100327.75
2022-09-01T10:13:44.576Z,100322.50
2022-09-01T10:16:36.721Z,100313.81
2022-09-01T10:19:23.572Z,100324.91
2022-09-01T10:22:03.729Z,100317.41
2022-09-01T10:24:46.034Z,100305.19
2022-09-01T10:27:41.758Z,100318.03
2022-09-01T10:30:26.599Z,100315.28
2022-09-01T10:33:18.967Z,100316.22
2022-09-01T10:36:07.959Z,100310.69
2022-09-01T10:39:04.606Z,100326.97
2022-09-01T10:42:00.077Z,100321.06
2022-09-01T10:45:04.651Z,100323.06
2022-09-01T10:47:46.939Z,100329.91
2022-09-01T10:50:39.607Z,100310.59
2022-09-01T10:53:51.536Z,100319.28
2022-09-01T10:56:52.607Z,100320.72
2022-09-01T10:59:44.921Z,100343.81
2022-09-01T11:02:42.086Z,100325.09
2022-09-01T11:05:33.639Z,100312.31
2022-09-01T11:08:29.529Z,100311.22
2022-09-01T11:11:47.503Z,100308.41
2022-09-01T11:14:34.531Z,100311.66
2022-09-01T11:17:28.800Z,100311.34
2022-09-01T11:20:42.505Z,100306.03
2022-09-01T11:23:44.523Z,100300.50
2022-09-01T11:26:47.584Z,100299.97
2022-09-01T11:30:01.532Z,100299.16
2022-09-01T11:32:51.486Z,100313.75
2022-09-01T11:35:32.554Z,100316.09
2022-09-01T11:38:22.582Z,100311.72
2022-09-01T11:41:09.690Z,100315.13
2022-09-01T11:43:56.696Z,100329.31
2022-09-01T11:46:43.486Z,100317.13
2022-09-01T11:50:09.717Z,100310.84
2022-09-01T11:53:13.443Z,100314.59
2022-09-01T11:55:57.899Z,100301.91
2022-09-01T11:58:45.484Z,100332.31
2022-09-01T12:01:48.455Z,100314.44
2022-09-01T12:04:43.434Z,100326.22
2022-09-01T12:07:35.774Z,100313.66
2022-09-01T12:10:32.474Z,100321.25
2022-09-01T12:13:26.470Z,100313.56
2022-09-01T12:16:18.374Z,100307.31
2022-09-01T12:19:07.415Z,100304.31
2022-09-01T12:21:59.422Z,100313.56
2022-09-01T12:24:50.439Z,100304.03
2022-09-01T12:27:30.880Z,100306.66
2022-09-01T12:30:17.464Z,100309.50
2022-09-01T12:36:24.426Z,100316.22
2022-09-01T12:39:31.415Z,100326.09
2022-09-01T12:42:40.860Z,100322.16
2022-09-01T12:45:52.428Z,100336.81
2022-09-01T12:48:45.559Z,100331.72
2022-09-01T12:51:32.537Z,100318.84
2022-09-01T12:54:12.662Z,100323.97
2022-09-01T12:56:52.944Z,100331.44
2022-09-01T12:59:40.410Z,100359.19
2022-09-01T13:05:51.377Z,100344.75
2022-09-01T13:08:41.426Z,100351.69
2022-09-01T13:11:26.024Z,100352.84
2022-09-01T13:14:12.361Z,100352.78
2022-09-01T13:16:52.528Z,100347.47
2022-09-01T13:19:39.357Z,100355.34
2022-09-01T13:22:19.606Z,100355.91
2022-09-01T13:25:07.377Z,100352.34
2022-09-01T13:27:47.616Z,100340.81
2022-09-01T13:30:35.368Z,100346.94
2022-09-01T13:33:23.155Z,100344.56
2022-09-01T13:39:18.668Z,100349.06
2022-09-01T13:42:05.334Z,100343.31
2022-09-01T13:44:55.179Z,100343.75
2022-09-01T13:53:52.366Z,100343.75
2022-09-01T13:56:32.478Z,100340.78
2022-09-01T13:59:19.382Z,100327.06
2022-09-01T14:01:59.720Z,100315.91
2022-09-01T14:04:46.358Z,100327.22
2022-09-01T14:07:33.337Z,100331.19
2022-09-01T14:10:21.334Z,100320.38
2022-09-01T14:13:09.312Z,100314.84
2022-09-01T14:15:50.161Z,100313.81
2022-09-01T14:18:43.393Z,100314.59
2022-09-01T14:21:30.326Z,100313.13
2022-09-01T14:24:10.416Z,100304.09
2022-09-01T14:26:57.315Z,100310.63
2022-09-01T14:32:25.310Z,100309.56
2022-09-01T14:35:14.388Z,100297.56
2022-09-01T14:38:02.345Z,100305.78
2022-09-01T14:40:50.380Z,100304.16
2022-09-01T14:43:39.285Z,100307.34
2022-09-01T14:46:20.469Z,100314.09
2022-09-01T14:49:08.262Z,100312.03
2022-09-01T14:52:11.352Z,100306.34
2022-09-01T14:54:51.814Z,100314.69
2022-09-01T14:57:39.296Z,100306.50
2022-09-01T15:00:20.296Z,100307.13
2022-09-01T15:03:09.513Z,100314.19
2022-09-01T15:05:51.035Z,100306.13
2022-09-01T15:08:38.262Z,100302.94
2022-09-01T15:28:05.287Z,100310.91
2022-09-01T15:30:46.630Z,100303.13
2022-09-01T15:33:34.283Z,100308.66
2022-09-01T15:36:20.779Z,100316.41
2022-09-01T15:39:07.249Z,100325.34
2022-09-01T15:41:47.653Z,100322.47
2022-09-01T15:44:34.310Z,100334.50
2022-09-01T15:47:21.326Z,100336.22
2022-09-01T15:50:08.306Z,100331.31
2022-09-01T15:52:59.671Z,100334.56
2022-09-01T15:55:58.244Z,100335.78
2022-09-01T15:58:57.531Z,100338.59
2022-09-01T16:01:49.284Z,100331.00
2022-09-01T16:04:29.697Z,100334.78
2022-09-01T16:07:17.266Z,100336.47
2022-09-01T16:10:04.260Z,100334.97
2022-09-01T16:12:51.780Z,100343.47
2022-09-01T16:15:39.284Z,100337.06
2022-09-01T16:18:25.378Z,100345.63
2022-09-01T16:21:21.259Z,100356.19
2022-09-01T16:24:08.213Z,100361.22
2022-09-01T16:27:03.215Z,100366.06
2022-09-01T16:30:16.261Z,100353.25
2022-09-01T16:32:56.310Z,100351.63
2022-09-01T16:36:14.234Z,100350.06
2022-09-01T16:38:58.412Z,100335.19
2022-09-01T16:41:52.226Z,100349.72
2022-09-01T16:45:07.232Z,100353.84
2022-09-01T16:48:10.368Z,100357.81
2022-09-01T16:50:57.211Z,100357.47
2022-09-01T16:54:07.224Z,100356.75
2022-09-01T16:57:01.210Z,100360.38
2022-09-01T16:59:59.069Z,100363.22
2022-09-01T17:03:04.197Z,100373.22
2022-09-01T17:06:18.465Z,100380.09
2022-09-01T17:09:14.240Z,100387.00
2022-09-01T17:12:20.058Z,100389.81
2022-09-01T17:15:15.191Z,100404.75
2022-09-01T17:18:22.131Z,100409.22
2022-09-01T17:21:20.179Z,100402.75
2022-09-01T17:24:06.150Z,100407.25
2022-09-01T17:26:58.181Z,100420.13
2022-09-01T17:29:59.147Z,100427.78
2022-09-01T17:33:02.154Z,100417.75
2022-09-01T17:36:00.351Z,100425.72
2022-09-01T17:39:00.182Z,100423.34
2022-09-01T17:41:52.843Z,100423.00
2022-09-01T17:44:52.144Z,100429.53
2022-09-01T17:47:48.315Z,100423.09
2022-09-01T17:50:54.931Z,100427.09
2022-09-01T17:54:05.144Z,100427.53
2022-09-01T17:57:33.138Z,100427.13
2022-09-01T18:00:34.870Z,100431.22
2022-09-01T18:03:41.098Z,100429.63
2022-09-01T18:06:31.170Z,100438.88
2022-09-01T18:09:22.364Z,100422.44
2022-09-01T18:12:11.117Z,100427.69
2022-09-01T18:15:18.127Z,100441.41
2022-09-01T18:18:11.195Z,100441.00
2022-09-01T18:21:05.129Z,100440.63
2022-09-01T18:23:48.555Z,100446.25
2022-09-01T18:26:42.274Z,100452.72
2022-09-01T18:29:29.716Z,100448.28
2022-09-01T18:32:24.287Z,100440.22
2022-09-01T18:35:08.620Z,100451.94
2022-09-01T18:38:19.209Z,100449.91
2022-09-01T18:41:12.341Z,100452.72
2022-09-01T18:44:17.767Z,100457.94
2022-09-01T18:47:09.342Z,100457.13
2022-09-01T18:49:49.682Z,100457.94
2022-09-01T18:53:09.316Z,100456.31
2022-09-01T18:56:37.554Z,100453.06
2022-09-01T18:59:47.326Z,100462.72
2022-09-01T19:03:06.604Z,100466.81
2022-09-01T19:06:05.306Z,100465.19
2022-09-01T19:09:22.328Z,100468.47
2022-09-01T19:12:19.307Z,100466.84
2022-09-01T19:15:26.026Z,100470.13
2022-09-01T19:18:31.299Z,100466.09
2022-09-01T19:21:33.264Z,100467.66
2022-09-01T19:24:30.285Z,100462.00
2022-09-01T19:27:28.227Z,100469.31
2022-09-01T19:30:16.180Z,100462.53
2022-09-01T19:33:04.081Z,100464.16
2022-09-01T19:35:47.456Z,100462.13
2022-09-01T19:38:38.087Z,100459.34
2022-09-01T19:41:35.033Z,100457.75
2022-09-01T19:44:28.018Z,100453.31
2022-09-01T19:47:23.046Z,100460.94
2022-09-01T19:50:21.010Z,100462.19
2022-09-01T19:53:38.887Z,100454.56
2022-09-01T19:56:39.846Z,100456.19
2022-09-01T19:59:42.947Z,100463.03
2022-09-01T20:02:43.045Z,100468.25
2022-09-01T20:05:32.187Z,100469.47
2022-09-01T20:08:31.021Z,100468.28
2022-09-01T20:11:35.243Z,100477.53
2022-09-01T20:14:37.117Z,100474.75
2022-09-01T20:17:27.530Z,100472.31
2022-09-01T20:20:22.004Z,100481.16
2022-09-01T20:23:31.031Z,100476.34
2022-09-01T20:26:22.967Z,100481.97
2022-09-01T20:29:23.010Z,100483.19
2022-09-01T20:32:06.098Z,100481.56
2022-09-01T20:34:59.997Z,100478.34
2022-09-01T20:37:54.084Z,100478.75
2022-09-01T20:40:47.023Z,100475.53
2022-09-01T20:43:46.000Z,100483.59
2022-09-01T20:46:26.854Z,100486.78
2022-09-01T20:49:13.987Z,100490.84
2022-09-01T20:52:00.272Z,100491.25
2022-09-01T20:55:15.947Z,100496.06
2022-09-01T20:58:20.359Z,100484.41
2022-09-01T21:01:28.953Z,100485.63
2022-09-01T21:04:23.725Z,100491.66
2022-09-01T21:07:13.928Z,100493.28
2022-09-01T21:10:09.937Z,100500.09
2022-09-01T21:13:02.932Z,100495.31
2022-09-01T21:16:06.931Z,100492.50
2022-09-01T21:19:20.925Z,100488.91
2022-09-01T21:22:27.905Z,100480.84
2022-09-01T21:25:15.034Z,100485.28
2022-09-01T21:28:05.933Z,100480.03
2022-09-01T21:30:46.096Z,100496.91
2022-09-01T21:33:38.894Z,100485.66
2022-09-01T21:36:19.030Z,100481.66
2022-09-01T21:39:05.892Z,100486.06
2022-09-01T21:41:46.090Z,100482.81
2022-09-01T21:44:32.878Z,100484.44
2022-09-01T21:47:13.019Z,100482.81
2022-09-01T21:49:59.906Z,100475.59
2022-09-01T21:52:40.049Z,100472.75
2022-09-01T21:55:27.881Z,100464.69
2022-09-01T21:58:14.899Z,100480.78
2022-09-01T22:01:02.063Z,100470.34
2022-09-01T22:03:41.880Z,100469.97
2022-09-01T22:06:29.905Z,100477.63
2022-09-01T22:09:20.887Z,100473.19
2022-09-01T22:12:07.889Z,100469.97
2022-09-01T22:14:47.993Z,100468.38
2022-09-01T22:17:34.842Z,100462.34
2022-09-01T22:20:17.180Z,100463.53
2022-09-01T22:23:04.846Z,100460.72
2022-09-01T22:25:56.830Z,100459.13
2022-09-01T22:28:43.870Z,100451.06
2022-09-01T22:31:26.980Z,100459.13
2022-09-01T22:34:14.879Z,100461.13
2022-09-01T22:37:02.870Z,100458.75
2022-09-01T22:39:49.886Z,100463.13
2022-09-01T22:42:29.930Z,100456.28
2022-09-01T22:45:19.834Z,100459.13
2022-09-01T22:48:06.841Z,100460.28
2022-09-01T22:50:54.835Z,100458.28
2022-09-01T22:53:41.866Z,100459.91
2022-09-01T22:56:28.036Z,100459.91
2022-09-01T22:59:16.850Z,100459.53
2022-09-01T23:02:04.010Z,100453.47
2022-09-01T23:04:44.822Z,100449.88
2022-09-01T23:07:25.346Z,100452.72
2022-09-01T23:10:12.831Z,100445.91
2022-09-01T23:12:53.377Z,100449.94
2022-09-01T23:15:39.820Z,100455.16
2022-09-01T23:18:20.232Z,100450.34
2022-09-01T23:21:08.884Z,100448.34
2022-09-01T23:23:55.154Z,100450.34
2022-09-01T23:26:46.773Z,100448.31
2022-09-01T23:29:27.245Z,100445.88
2022-09-01T23:32:15.847Z,100448.72
2022-09-01T23:34:56.889Z,100450.31
2022-09-01T23:37:43.778Z,100447.91
2022-09-01T23:40:30.820Z,100449.13
2022-09-01T23:43:17.805Z,100445.09
2022-09-01T23:45:58.279Z,100445.47
2022-09-01T23:48:44.773Z,100444.25
2022-09-01T23:51:25.772Z,100444.25
2022-09-01T23:54:12.787Z,100447.88
2022-09-01T23:56:59.786Z,100449.47
2022-09-01T23:59:40.856Z,100447.84
